Time;durP1;ratioP1;P1;durP2;ratioP2;P2;SDS_P1;SDS_P2;PMS_P1;PMS_P2;Temp;Humidity;BMP_temperature;BMP_pressure;BME280_temperature;BME280_humidity;BME280_pressure;Samples;Min_cycle;Max_cycle;Signal;HPM_P1;HPM_P2
2022/10/23 00:00:22;;;;;;;;;1.50;1.00;;;;;16.33;81.21;99206.69;5054377;28;45515;-79
2022/10/23 00:02:52;;;;;;;;;2.00;2.00;;;;;16.31;81.26;99224.53;5054815;28;45380;-79
2022/10/23 00:05:19;;;;;;;;;1.00;1.00;;;;;16.31;81.58;99221.88;5055081;28;45373;-79
2022/10/23 00:07:49;;;;;;;;;2.00;0.40;;;;;16.32;81.42;99220.06;5049745;28;45556;-79
2022/10/23 00:10:14;;;;;;;;;2.00;1.00;;;;;16.28;80.96;99221.22;5048013;28;47564;-79
2022/10/23 00:12:39;;;;;;;;;3.00;2.00;;;;;16.24;81.35;99246.31;5050623;28;45368;-79
2022/10/23 00:15:05;;;;;;;;;2.00;2.00;;;;;16.20;81.76;99224.34;5055459;28;45431;-79
2022/10/23 00:17:33;;;;;;;;;2.00;2.00;;;;;16.18;82.53;99231.56;5049299;28;45590;-79
2022/10/23 00:19:59;;;;;;;;;2.00;2.00;;;;;16.15;82.32;99236.22;5068293;28;47154;-79
2022/10/23 00:22:24;;;;;;;;;2.00;2.00;;;;;16.13;82.56;99217.69;5053584;28;45331;-80
2022/10/23 00:24:50;;;;;;;;;1.00;1.00;;;;;16.14;82.33;99222.06;5046885;28;45404;-80
2022/10/23 00:27:15;;;;;;;;;3.25;2.00;;;;;16.16;82.08;99219.31;5043731;28;45368;-79
2022/10/23 00:29:40;;;;;;;;;3.00;3.00;;;;;16.19;82.47;99229.78;5050062;28;45475;-79
2022/10/23 00:32:06;;;;;;;;;3.50;2.75;;;;;16.18;82.00;99204.13;5055522;28;45277;-79
2022/10/23 00:34:31;;;;;;;;;2.00;1.25;;;;;16.19;81.75;99217.31;5055172;28;45469;-79
2022/10/23 00:36:56;;;;;;;;;0.00;0.00;;;;;16.19;81.62;99227.97;5053848;28;45547;-80
2022/10/23 00:39:22;;;;;;;;;2.00;2.00;;;;;16.16;81.94;99220.16;5050255;28;46232;-80
2022/10/23 00:41:47;;;;;;;;;1.00;1.00;;;;;16.17;82.35;99221.03;5054771;28;45482;-79
2022/10/23 00:44:18;;;;;;;;;3.25;2.00;;;;;16.17;81.86;99213.03;5050165;28;45421;-80
2022/10/23 00:46:45;;;;;;;;;3.60;1.00;;;;;16.15;81.86;99214.94;5053649;28;45334;-79
2022/10/23 00:49:11;;;;;;;;;1.80;1.80;;;;;16.14;82.09;99223.88;5047666;28;46325;-79
2022/10/23 00:51:41;;;;;;;;;6.20;2.00;;;;;16.11;82.07;99216.94;5054776;28;45314;-79
2022/10/23 00:54:10;;;;;;;;;2.00;2.00;;;;;16.09;82.35;99218.81;5053997;28;45411;-79
2022/10/23 00:56:39;;;;;;;;;4.25;2.00;;;;;16.07;82.12;99211.91;5054079;28;45509;-80
2022/10/23 00:59:04;;;;;;;;;1.60;1.60;;;;;16.03;82.42;99195.28;5047705;28;45506;-80
2022/10/23 01:01:30;;;;;;;;;1.00;1.00;;;;;16.00;82.49;99201.63;5054356;28;45494;-80
2022/10/23 01:03:55;;;;;;;;;1.75;1.75;;;;;15.96;82.72;99208.06;5045518;28;45396;-79
2022/10/23 01:06:39;;;;;;;;;1.00;1.00;;;;;15.93;82.93;99191.44;5054359;28;45518;-80
2022/10/23 01:09:04;;;;;;;;;3.20;2.20;;;;;15.89;83.03;99192.59;5054121;28;45463;-79
2022/10/23 01:11:39;;;;;;;;;4.00;1.75;;;;;15.83;83.39;99203.59;5087234;27;45432;-79
2022/10/23 01:14:28;;;;;;;;;1.80;1.00;;;;;15.78;83.66;99195.03;5065915;28;45405;-79
2022/10/23 01:17:22;;;;;;;;;2.75;2.75;;;;;15.75;83.75;99197.91;5054658;28;45454;-79
2022/10/23 01:19:57;;;;;;;;;1.20;1.20;;;;;15.70;83.92;99203.50;5048110;28;45702;-79
2022/10/23 01:22:44;;;;;;;;;1.20;1.00;;;;;15.66;83.80;99186.84;5050566;28;45440;-80
2022/10/23 01:25:47;;;;;;;;;1.60;1.60;;;;;15.62;84.09;99195.09;5070004;28;45412;-79
2022/10/23 01:28:18;;;;;;;;;1.20;1.20;;;;;15.60;84.28;99195.19;5049376;28;45539;-79
2022/10/23 01:30:43;;;;;;;;;5.00;2.60;;;;;15.60;83.75;99181.03;5054194;28;45574;-79
2022/10/23 01:33:15;;;;;;;;;0.75;0.75;;;;;15.58;83.93;99185.63;5052778;28;45465;-79
2022/10/23 01:36:01;;;;;;;;;2.00;2.00;;;;;15.55;84.05;99199.94;5054442;28;45399;-80
2022/10/23 01:38:38;;;;;;;;;1.40;1.40;;;;;15.53;83.94;99188.50;5042346;28;45341;-80
2022/10/23 01:41:13;;;;;;;;;1.60;1.60;;;;;15.48;84.00;99198.53;5053990;28;46306;-79
2022/10/23 01:43:53;;;;;;;;;2.00;1.40;;;;;15.45;84.58;99187.22;5084476;27;45267;-79
2022/10/23 01:46:20;;;;;;;;;1.20;1.20;;;;;15.41;84.87;99181.28;5052391;28;45511;-79
2022/10/23 01:48:51;;;;;;;;;1.80;1.80;;;;;15.38;85.24;99188.56;5051324;28;45572;-79
2022/10/23 01:51:19;;;;;;;;;2.00;1.40;;;;;15.36;85.34;99172.72;5057236;28;45665;-79
2022/10/23 01:53:46;;;;;;;;;2.20;2.20;;;;;15.36;85.33;99160.28;5053663;28;45423;-79
2022/10/23 01:56:18;;;;;;;;;1.60;1.40;;;;;15.36;85.07;99149.66;5057461;28;45360;-79
2022/10/23 01:58:48;;;;;;;;;1.75;1.75;;;;;15.35;85.16;99139.13;5050589;28;45433;-79
2022/10/23 02:01:17;;;;;;;;;1.60;0.60;;;;;15.35;84.52;99136.47;5048620;28;45718;-79
2022/10/23 02:03:44;;;;;;;;;1.00;1.00;;;;;15.33;84.75;99156.94;5043384;28;45399;-79
2022/10/23 02:06:10;;;;;;;;;1.40;1.40;;;;;15.29;84.95;99140.31;5057320;28;45336;-79
2022/10/23 02:08:35;;;;;;;;;0.50;0.50;;;;;15.27;84.72;99136.91;5052076;28;45412;-79
2022/10/23 02:11:16;;;;;;;;;1.25;1.25;;;;;15.28;84.76;99132.44;5057153;28;45637;-79
2022/10/23 02:13:51;;;;;;;;;3.00;1.00;;;;;15.27;84.71;99136.91;5056879;28;45398;-79
2022/10/23 02:16:29;;;;;;;;;1.60;1.60;;;;;15.27;84.65;99147.53;5057359;28;45472;-79
2022/10/23 02:19:00;;;;;;;;;3.00;2.25;;;;;15.27;84.91;99128.94;5056553;28;45351;-80
2022/10/23 02:21:46;;;;;;;;;2.00;1.00;;;;;15.25;85.09;99144.09;5057002;28;45556;-79
2022/10/23 02:24:14;;;;;;;;;1.00;0.80;;;;;15.24;84.79;99147.72;5045091;28;45433;-79
2022/10/23 02:26:52;;;;;;;;;1.60;1.00;;;;;15.22;84.74;99152.28;5056527;28;45392;-79
2022/10/23 02:29:33;;;;;;;;;1.00;0.50;;;;;15.19;85.01;99151.59;5053912;28;45586;-80
2022/10/23 02:32:00;;;;;;;;;1.80;1.60;;;;;15.15;85.32;99152.72;5052899;28;45491;-79
2022/10/23 02:34:25;;;;;;;;;0.60;0.60;;;;;15.13;85.09;99158.09;5054800;28;45306;-80
2022/10/23 02:36:51;;;;;;;;;0.50;0.50;;;;;15.13;84.95;99146.63;5055786;28;45376;-79
2022/10/23 02:39:16;;;;;;;;;0.50;0.50;;;;;15.12;85.61;99152.88;5056440;28;45326;-79
2022/10/23 02:42:21;;;;;;;;;1.25;1.25;;;;;15.11;85.28;99140.53;5056511;28;45718;-79
2022/10/23 02:45:14;;;;;;;;;3.60;2.60;;;;;15.09;85.03;99135.31;5056259;28;45393;-80
2022/10/23 02:47:54;;;;;;;;;1.20;1.20;;;;;15.08;84.75;99128.28;5056838;28;45415;-79
2022/10/23 02:51:03;;;;;;;;;2.75;2.25;;;;;15.04;85.07;99148.03;5057045;28;45478;-79
2022/10/23 02:54:03;;;;;;;;;2.20;2.20;;;;;15.01;85.03;99130.47;5078495;27;48545;-79
2022/10/23 02:56:55;;;;;;;;;0.80;0.60;;;;;14.98;85.22;99135.94;5056287;28;45332;-79
2022/10/23 02:59:34;;;;;;;;;0.80;0.80;;;;;14.92;85.49;99131.00;5044588;28;45375;-79
2022/10/23 03:01:59;;;;;;;;;1.00;1.00;;;;;14.91;85.28;99129.28;5055703;28;45345;-79
2022/10/23 03:04:27;;;;;;;;;1.50;1.50;;;;;14.88;85.14;99124.16;5043852;28;45511;-79
2022/10/23 03:06:53;;;;;;;;;2.80;1.00;;;;;14.84;85.60;99130.59;5055821;28;45464;-80
2022/10/23 03:09:18;;;;;;;;;1.00;1.00;;;;;14.83;85.87;99099.69;5052769;28;45404;-78
2022/10/23 03:11:44;;;;;;;;;2.50;1.50;;;;;14.80;85.76;99117.56;5050497;28;45376;-79
2022/10/23 03:14:12;;;;;;;;;2.00;2.00;;;;;14.78;85.95;99114.16;5048445;28;45472;-79
2022/10/23 03:16:37;;;;;;;;;2.60;0.80;;;;;14.77;86.04;99107.13;5053792;28;45369;-79
2022/10/23 03:19:03;;;;;;;;;2.00;2.00;;;;;14.76;85.93;99124.00;5045476;28;45388;-79
2022/10/23 03:21:28;;;;;;;;;2.00;2.00;;;;;14.76;86.43;99121.34;5055755;28;45454;-79
2022/10/23 03:23:54;;;;;;;;;1.00;1.00;;;;;14.74;85.65;99096.72;5055164;28;46060;-79
2022/10/23 03:26:19;;;;;;;;;3.50;1.00;;;;;14.74;85.61;99102.03;5055403;28;45359;-79
2022/10/23 03:28:44;;;;;;;;;2.25;2.00;;;;;14.75;85.54;99103.69;5055964;28;45654;-79
2022/10/23 03:31:10;;;;;;;;;2.00;2.00;;;;;14.76;85.27;99098.31;5055144;28;45431;-79
2022/10/23 03:33:35;;;;;;;;;1.00;1.00;;;;;14.75;85.37;99101.91;5079173;27;47547;-79
2022/10/23 03:36:01;;;;;;;;;1.75;1.00;;;;;14.76;85.07;99086.84;5055680;28;45468;-79
2022/10/23 03:38:26;;;;;;;;;5.75;5.00;;;;;14.75;85.03;99095.75;5056124;28;45878;-79
2022/10/23 03:40:52;;;;;;;;;4.00;2.75;;;;;14.74;85.26;99097.56;5055768;28;45358;-79
2022/10/23 03:43:17;;;;;;;;;1.00;1.00;;;;;14.74;85.10;99100.22;5055690;28;46527;-79
2022/10/23 03:45:43;;;;;;;;;1.00;1.00;;;;;14.75;84.71;99085.97;5055537;28;45407;-79
2022/10/23 03:48:08;;;;;;;;;1.25;1.25;;;;;14.75;84.88;99111.66;5052112;28;45455;-79
2022/10/23 03:50:34;;;;;;;;;5.00;0.00;;;;;14.75;84.78;99101.03;5055950;28;45581;-79
2022/10/23 03:53:00;;;;;;;;;2.20;0.80;;;;;14.74;84.97;99097.56;5041765;28;45867;-79
2022/10/23 03:55:26;;;;;;;;;3.00;2.00;;;;;14.76;84.52;99100.09;5050040;28;45380;-79
2022/10/23 03:57:54;;;;;;;;;1.50;1.50;;;;;14.77;84.47;99099.16;5047963;28;45396;-79
2022/10/23 04:00:20;;;;;;;;;1.00;1.00;;;;;14.79;84.39;99103.44;5048798;28;45503;-79
2022/10/23 04:02:46;;;;;;;;;1.00;0.80;;;;;14.80;84.13;99091.03;5051370;28;46532;-79
2022/10/23 04:05:11;;;;;;;;;2.00;0.50;;;;;14.79;84.17;99092.81;5052605;28;45386;-79
2022/10/23 04:07:37;;;;;;;;;1.00;1.00;;;;;14.78;84.30;99104.38;5055067;28;45446;-79
2022/10/23 04:10:03;;;;;;;;;0.75;0.75;;;;;14.77;84.24;99102.66;5050135;28;45388;-79
2022/10/23 04:12:29;;;;;;;;;1.00;1.00;;;;;14.76;84.25;99108.91;5054722;28;45585;-80
2022/10/23 04:14:54;;;;;;;;;2.00;2.00;;;;;14.75;84.87;99111.66;5051700;28;45419;-79
2022/10/23 04:17:19;;;;;;;;;2.00;1.50;;;;;14.74;84.93;99123.25;5055434;28;45699;-79
2022/10/23 04:19:45;;;;;;;;;2.00;2.00;;;;;14.74;85.18;99113.50;5042774;28;45438;-79
2022/10/23 04:22:10;;;;;;;;;2.25;2.25;;;;;14.75;85.16;99119.63;5055220;28;46158;-80
2022/10/23 04:24:36;;;;;;;;;3.25;3.00;;;;;14.73;86.32;99140.97;5055143;28;45373;-79
2022/10/23 04:27:01;;;;;;;;;5.00;3.25;;;;;14.70;87.75;99125.22;5054339;28;45551;-79
2022/10/23 04:29:30;;;;;;;;;4.00;3.00;;;;;14.63;87.54;99137.97;5055436;28;45310;-79
2022/10/23 04:31:56;;;;;;;;;4.00;4.00;;;;;14.61;88.51;99136.34;5052105;28;45450;-80
2022/10/23 04:34:21;;;;;;;;;5.75;5.00;;;;;14.57;88.41;99129.50;5054906;28;45392;-79
2022/10/23 04:36:47;;;;;;;;;4.50;2.50;;;;;14.53;88.18;99136.78;5055135;28;45301;-79
2022/10/23 04:39:13;;;;;;;;;4.00;4.00;;;;;14.52;88.72;99123.59;5053222;28;45466;-79
2022/10/23 04:41:38;;;;;;;;;4.75;3.00;;;;;14.51;88.31;99121.88;5054662;28;45386;-79
2022/10/23 04:44:04;;;;;;;;;4.50;4.00;;;;;14.52;88.55;99129.75;5054653;28;45408;-79
2022/10/23 04:46:29;;;;;;;;;4.75;3.00;;;;;14.54;88.07;99121.72;5054626;28;45443;-79
2022/10/23 04:48:55;;;;;;;;;3.25;2.75;;;;;14.53;86.86;99115.56;5051969;28;45344;-79
2022/10/23 04:51:20;;;;;;;;;2.75;2.50;;;;;14.54;87.25;99132.31;5054315;28;45645;-79
2022/10/23 04:53:45;;;;;;;;;1.25;1.00;;;;;14.54;85.88;99111.09;5054155;28;45398;-79
2022/10/23 04:56:14;;;;;;;;;2.75;2.75;;;;;14.54;86.06;99129.69;5054162;28;45427;-79
2022/10/23 04:58:40;;;;;;;;;3.50;2.00;;;;;14.54;86.96;99122.56;5053032;28;45658;-80
2022/10/23 05:01:06;;;;;;;;;1.00;1.00;;;;;14.55;86.66;99137.56;5054702;28;46173;-79
2022/10/23 05:03:31;;;;;;;;;2.80;2.80;;;;;14.58;86.73;99125.88;5053171;28;45356;-79
2022/10/23 05:05:57;;;;;;;;;3.00;3.00;;;;;14.57;87.27;99114.44;5054880;28;45314;-80
2022/10/23 05:08:23;;;;;;;;;4.25;2.50;;;;;14.55;87.18;99123.44;5044868;28;45507;-80
2022/10/23 05:10:49;;;;;;;;;2.00;1.25;;;;;14.56;87.50;99095.97;5051864;28;47583;-80
2022/10/23 05:13:18;;;;;;;;;1.00;1.00;;;;;14.62;85.88;99111.50;5046506;28;45475;-80
2022/10/23 05:15:44;;;;;;;;;0.60;0.00;;;;;14.71;85.62;99102.19;5053953;28;45418;-80
2022/10/23 05:18:20;;;;;;;;;3.50;2.50;;;;;14.79;85.00;99111.41;5047688;28;45846;-79
2022/10/23 05:20:48;;;;;;;;;3.00;3.00;;;;;14.81;85.42;99124.59;5050476;28;45481;-79
2022/10/23 05:23:17;;;;;;;;;6.40;3.00;;;;;14.78;86.89;99127.41;5051824;28;45292;-79
2022/10/23 05:25:42;;;;;;;;;3.25;3.00;;;;;14.72;86.94;99120.69;5058161;28;45365;-80
2022/10/23 05:28:08;;;;;;;;;3.00;3.00;;;;;14.70;87.32;99104.00;5057856;28;45368;-79
2022/10/23 05:30:33;;;;;;;;;3.75;2.00;;;;;14.67;86.00;99122.72;5057895;28;45662;-79
2022/10/23 05:33:01;;;;;;;;;3.00;2.75;;;;;14.66;87.38;99123.66;5056669;28;45732;-80
2022/10/23 05:35:28;;;;;;;;;3.60;3.00;;;;;14.67;87.62;99117.44;5058329;28;45295;-79
2022/10/23 05:37:56;;;;;;;;;2.50;2.50;;;;;14.65;87.19;99135.22;5042043;28;45439;-79
2022/10/23 05:40:21;;;;;;;;;3.60;2.80;;;;;14.63;87.64;99130.00;5053983;28;45548;-79
2022/10/23 05:42:47;;;;;;;;;4.50;3.25;;;;;14.65;87.32;99137.88;5052892;28;45377;-79
2022/10/23 05:45:12;;;;;;;;;4.25;4.00;;;;;14.62;88.27;99107.06;5058181;28;45365;-80
2022/10/23 05:47:37;;;;;;;;;6.75;3.00;;;;;14.57;88.27;99121.56;5057627;28;45491;-80
2022/10/23 05:50:03;;;;;;;;;5.00;3.00;;;;;14.53;88.07;99127.97;5057402;28;45340;-80
2022/10/23 05:52:28;;;;;;;;;3.00;3.00;;;;;14.52;87.99;99128.91;5053554;28;45373;-79
2022/10/23 05:54:54;;;;;;;;;2.50;2.00;;;;;14.49;88.05;99113.16;5054312;28;45672;-79
2022/10/23 05:57:19;;;;;;;;;3.00;2.00;;;;;14.47;87.94;99130.94;5057432;28;45511;-79
2022/10/23 05:59:44;;;;;;;;;5.00;2.50;;;;;14.47;88.30;99118.53;5048376;28;45596;-79
2022/10/23 06:02:10;;;;;;;;;4.00;2.00;;;;;14.49;87.88;99115.81;5055107;28;45536;-79
2022/10/23 06:04:35;;;;;;;;;0.75;0.75;;;;;14.52;87.73;99102.38;5053218;28;45445;-80
2022/10/23 06:07:02;;;;;;;;;3.25;2.75;;;;;14.56;87.87;99125.16;5054932;28;45313;-79
2022/10/23 06:09:27;;;;;;;;;1.80;1.80;;;;;14.59;87.47;99087.81;5047688;28;47646;-80
2022/10/23 06:11:53;;;;;;;;;2.75;2.00;;;;;14.61;87.30;99129.22;5051723;28;45463;-79
2022/10/23 06:14:18;;;;;;;;;2.50;2.00;;;;;14.65;87.16;99109.53;5048198;28;45242;-79
2022/10/23 06:16:44;;;;;;;;;3.00;3.00;;;;;14.71;86.96;99136.69;5054559;28;45320;-79
2022/10/23 06:19:10;;;;;;;;;5.00;3.00;;;;;14.75;86.68;99115.16;5052318;28;46243;-79
2022/10/23 06:21:37;;;;;;;;;2.80;2.80;;;;;14.81;86.49;99122.78;5055208;28;45429;-79
2022/10/23 06:24:04;;;;;;;;;3.50;2.00;;;;;14.88;86.05;99115.34;5051801;28;45431;-79
2022/10/23 06:26:29;;;;;;;;;2.25;1.50;;;;;14.93;85.52;99122.09;5056673;28;45544;-79
2022/10/23 06:28:55;;;;;;;;;2.75;2.00;;;;;14.93;85.11;99095.53;5056737;28;45576;-78
2022/10/23 06:31:25;;;;;;;;;2.00;2.00;;;;;14.96;84.49;99110.44;5055313;28;45378;-79
2022/10/23 06:33:51;;;;;;;;;1.60;1.60;;;;;15.00;84.46;99125.25;5051067;28;45333;-78
2022/10/23 06:36:16;;;;;;;;;2.00;2.00;;;;;15.03;84.76;99127.72;5052390;28;45532;-79
2022/10/23 06:38:42;;;;;;;;;3.00;3.00;;;;;15.04;84.20;99100.25;5053890;28;45958;-79
2022/10/23 06:41:13;;;;;;;;;1.50;1.00;;;;;15.06;84.04;99122.25;5056422;28;45343;-79
2022/10/23 06:43:38;;;;;;;;;2.40;1.60;;;;;15.07;84.12;99116.00;5055554;28;45374;-79
2022/10/23 06:46:04;;;;;;;;;3.75;3.50;;;;;15.11;84.09;99114.00;5046294;28;45639;-79
2022/10/23 06:48:30;;;;;;;;;3.50;2.25;;;;;15.15;83.68;99124.34;5056394;28;46481;-78
2022/10/23 06:50:56;;;;;;;;;2.20;2.20;;;;;15.16;83.54;99118.09;5056391;28;45380;-79
2022/10/23 06:53:23;;;;;;;;;5.25;4.00;;;;;15.19;83.51;99131.19;5050064;28;45435;-79
2022/10/23 06:55:50;;;;;;;;;1.50;1.50;;;;;15.21;83.10;99086.81;5051686;28;45588;-79
2022/10/23 06:58:15;;;;;;;;;4.00;2.00;;;;;15.22;83.68;99116.91;5050817;28;45596;-79
2022/10/23 07:00:41;;;;;;;;;2.50;1.50;;;;;15.26;83.52;99070.59;5055870;28;45355;-79
2022/10/23 07:03:07;;;;;;;;;1.75;1.75;;;;;15.30;83.23;99093.38;5049926;28;45436;-70
2022/10/23 07:05:33;;;;;;;;;1.50;1.50;;;;;15.35;82.64;99080.69;5044428;28;45643;-73
2022/10/23 07:07:58;;;;;;;;;1.25;1.25;;;;;15.40;82.42;99067.97;5055317;28;46291;-73
2022/10/23 07:10:24;;;;;;;;;4.50;2.00;;;;;15.45;82.13;99087.13;5052778;28;45388;-73
2022/10/23 07:12:49;;;;;;;;;1.00;0.50;;;;;15.51;82.08;99072.63;5051753;28;45488;-74
2022/10/23 07:15:15;;;;;;;;;0.50;0.50;;;;;15.54;81.67;99097.22;5052532;28;45509;-73
2022/10/23 07:17:40;;;;;;;;;1.60;1.00;;;;;15.58;81.56;99072.22;5055881;28;45414;-73
2022/10/23 07:20:07;;;;;;;;;3.00;1.00;;;;;15.57;81.20;99073.16;5053022;28;45388;-74
2022/10/23 07:22:32;;;;;;;;;2.60;2.60;;;;;15.56;81.21;99076.75;5031270;28;45409;-74
2022/10/23 07:24:58;;;;;;;;;3.00;1.75;;;;;15.60;81.46;99090.69;5045171;28;45574;-73
2022/10/23 07:27:24;;;;;;;;;4.00;1.00;;;;;15.60;81.17;99099.50;5053918;28;45581;-74
2022/10/23 07:29:50;;;;;;;;;1.20;1.20;;;;;15.60;81.42;99080.91;5047406;28;45457;-73
2022/10/23 07:32:16;;;;;;;;;2.80;2.80;;;;;15.62;81.65;99065.72;5053949;28;45599;-74
2022/10/23 07:34:41;;;;;;;;;1.75;1.75;;;;;15.61;80.86;99077.31;5051401;28;45463;-73
2022/10/23 07:37:06;;;;;;;;;2.50;1.25;;;;;15.62;81.08;99084.34;5049447;28;46281;-74
2022/10/23 07:39:32;;;;;;;;;1.50;0.50;;;;;15.66;80.73;99091.19;5053026;28;45424;-74
2022/10/23 07:41:57;;;;;;;;;0.25;0.25;;;;;15.76;80.72;99053.38;5054641;28;45769;-74
2022/10/23 07:44:23;;;;;;;;;1.75;1.75;;;;;15.80;80.23;99063.75;5051713;28;45586;-74
2022/10/23 07:46:48;;;;;;;;;0.75;0.75;;;;;15.86;80.29;99055.41;5053681;28;45420;-74
2022/10/23 07:49:14;;;;;;;;;1.75;1.75;;;;;15.88;80.57;99093.38;5044848;28;45538;-75
2022/10/23 07:51:39;;;;;;;;;0.75;0.75;;;;;15.89;79.92;99086.25;5053616;28;45401;-74
2022/10/23 07:54:06;;;;;;;;;3.00;2.75;;;;;15.92;80.02;99094.06;5049178;28;45508;-75
2022/10/23 07:56:32;;;;;;;;;2.60;2.60;;;;;15.94;81.10;99089.47;5054038;28;45495;-74
2022/10/23 07:58:57;;;;;;;;;2.75;2.75;;;;;15.96;81.26;99080.44;5050830;28;45419;-75
2022/10/23 08:01:55;;;;;;;;;1.75;1.75;;;;;15.97;81.20;99099.91;5052912;28;45388;-76
2022/10/23 08:04:21;;;;;;;;;0.75;0.75;;;;;15.95;81.11;99065.44;5033889;28;45564;-75
2022/10/23 08:06:47;;;;;;;;;3.75;3.00;;;;;15.97;80.54;99074.19;5054059;28;46126;-74
2022/10/23 08:09:12;;;;;;;;;3.75;2.50;;;;;16.04;80.32;99074.66;5047519;28;45613;-74
2022/10/23 08:11:38;;;;;;;;;2.50;1.75;;;;;16.10;79.59;99073.41;5048177;28;45705;-75
2022/10/23 08:14:05;;;;;;;;;5.50;3.75;;;;;16.14;79.19;99072.25;5053004;28;45623;-73
2022/10/23 08:16:35;;;;;;;;;0.80;0.80;;;;;16.15;78.97;99063.34;5047333;28;45529;-74
2022/10/23 08:19:01;;;;;;;;;1.60;0.80;;;;;16.13;78.69;99074.06;5052787;28;45644;-74
2022/10/23 08:21:27;;;;;;;;;1.75;1.75;;;;;16.13;79.07;99078.53;5043366;28;45419;-74
2022/10/23 08:23:57;;;;;;;;;3.50;2.75;;;;;16.15;79.11;99066.84;5049638;28;45414;-73
2022/10/23 08:26:24;;;;;;;;;2.60;2.00;;;;;16.18;79.15;99065.81;5052374;28;46114;-74
2022/10/23 08:28:50;;;;;;;;;2.40;2.40;;;;;16.19;79.06;99089.66;5042274;28;45428;-73
2022/10/23 08:31:18;;;;;;;;;1.00;1.00;;;;;16.21;79.46;99047.84;5053083;28;45473;-73
2022/10/23 08:33:43;;;;;;;;;2.00;2.00;;;;;16.17;79.28;99091.53;5042846;28;45580;-73
2022/10/23 08:36:28;;;;;;;;;3.00;1.75;;;;;16.15;79.58;99089.94;5052779;28;45522;-73
2022/10/23 08:38:56;;;;;;;;;3.40;3.40;;;;;16.14;80.08;99090.88;5043156;28;45592;-73
2022/10/23 08:41:32;;;;;;;;;3.20;2.20;;;;;16.17;80.07;99096.00;5053844;28;45470;-72
2022/10/23 08:44:26;;;;;;;;;3.20;2.00;;;;;16.20;79.46;99077.19;5052188;28;45516;-73
2022/10/23 08:47:10;;;;;;;;;2.80;2.80;;;;;16.20;80.40;99107.31;5042203;28;46585;-73
2022/10/23 08:49:43;;;;;;;;;1.80;1.20;;;;;16.19;79.00;99063.03;5052469;28;45482;-74
2022/10/23 08:52:21;;;;;;;;;5.00;4.40;;;;;16.14;79.96;99085.56;5053000;28;45503;-74
2022/10/23 08:55:18;;;;;;;;;5.75;5.00;;;;;16.15;79.69;99092.59;5040452;28;45558;-73
2022/10/23 08:57:57;;;;;;;;;4.80;2.80;;;;;16.20;79.39;99085.19;5043662;27;45715;-74
2022/10/23 09:00:22;;;;;;;;;1.80;0.80;;;;;16.24;78.87;99089.38;5052342;28;45518;-74
2022/10/23 09:02:52;;;;;;;;;4.00;4.00;;;;;16.24;79.73;99100.00;5053460;28;45381;-73
2022/10/23 09:05:27;;;;;;;;;4.00;4.00;;;;;16.15;79.91;99098.75;5053213;28;45495;-73
2022/10/23 09:08:25;;;;;;;;;6.00;4.60;;;;;16.05;80.82;99079.88;5052896;28;46154;-73
2022/10/23 09:10:57;;;;;;;;;4.40;3.80;;;;;15.96;81.13;99096.41;5053561;27;45330;-73
2022/10/23 09:13:31;;;;;;;;;6.20;3.40;;;;;16.00;81.22;99097.06;5053736;28;45313;-73
2022/10/23 09:16:09;;;;;;;;;2.25;2.00;;;;;16.06;81.16;99104.69;5077331;27;45385;-73
2022/10/23 09:18:41;;;;;;;;;3.40;3.40;;;;;16.13;80.90;99094.47;5053241;28;45471;-73
2022/10/23 09:21:10;;;;;;;;;7.40;6.20;;;;;16.19;79.62;99076.34;5052669;28;45417;-73
2022/10/23 09:23:36;;;;;;;;;5.00;4.20;;;;;16.25;79.94;99097.25;5052068;28;45447;-73
2022/10/23 09:26:11;;;;;;;;;4.75;4.75;;;;;16.33;79.88;99100.25;5055068;28;45412;-73
2022/10/23 09:28:55;;;;;;;;;3.40;3.40;;;;;16.44;79.84;99096.03;5051126;28;45706;-73
2022/10/23 09:31:21;;;;;;;;;4.00;4.00;;;;;16.54;79.08;99091.84;5052843;28;45494;-73
2022/10/23 09:33:58;;;;;;;;;3.75;3.00;;;;;16.62;78.47;99100.19;5052708;28;45768;-72
2022/10/23 09:36:27;;;;;;;;;3.75;2.50;;;;;16.69;78.41;99094.41;5051894;28;45489;-73
2022/10/23 09:38:54;;;;;;;;;4.60;3.60;;;;;16.76;77.77;99104.66;5050574;28;46709;-71
2022/10/23 09:41:35;;;;;;;;;6.40;3.40;;;;;16.84;77.76;99102.34;5051973;28;45527;-72
2022/10/23 09:44:05;;;;;;;;;2.40;2.20;;;;;16.91;77.63;99103.66;5053315;28;45455;-73
2022/10/23 09:46:38;;;;;;;;;2.80;2.60;;;;;16.97;77.00;99098.75;5048670;28;45574;-72
2022/10/23 09:49:03;;;;;;;;;2.00;2.00;;;;;17.03;76.11;99092.16;5052260;28;46737;-72
2022/10/23 09:51:29;;;;;;;;;4.25;3.75;;;;;17.08;75.78;99095.38;5051413;28;45511;-73
2022/10/23 09:53:57;;;;;;;;;6.00;5.00;;;;;17.12;75.83;99102.19;5051946;28;45438;-72
2022/10/23 09:56:30;;;;;;;;;4.00;2.20;;;;;17.16;76.27;99108.19;5052083;28;45451;-73
2022/10/23 09:58:57;;;;;;;;;5.40;5.40;;;;;17.19;76.32;99119.50;5051016;28;45578;-73
2022/10/23 10:01:25;;;;;;;;;3.80;3.80;;;;;17.20;76.67;99118.53;5051832;28;45605;-72
2022/10/23 10:03:52;;;;;;;;;6.20;4.00;;;;;17.24;76.54;99113.84;5052741;28;45496;-72
2022/10/23 10:06:25;;;;;;;;;3.80;3.60;;;;;17.24;75.96;99103.19;5051282;28;45389;-73
2022/10/23 10:08:54;;;;;;;;;3.00;2.80;;;;;17.23;76.48;99110.34;5052035;28;45672;-73
2022/10/23 10:11:33;;;;;;;;;3.60;3.60;;;;;17.27;75.76;99108.28;5055855;28;45350;-73
2022/10/23 10:14:37;;;;;;;;;3.00;3.00;;;;;17.31;76.03;99126.66;5054602;28;45384;-73
2022/10/23 10:17:14;;;;;;;;;3.80;3.80;;;;;17.41;76.42;99126.91;5052270;28;45404;-73
2022/10/23 10:19:47;;;;;;;;;3.60;3.60;;;;;17.54;76.98;99126.91;5055022;28;45533;-74
2022/10/23 10:22:23;;;;;;;;;6.00;5.00;;;;;17.64;77.29;99125.34;5057995;28;45480;-73
2022/10/23 10:25:02;;;;;;;;;6.20;5.60;;;;;17.75;76.32;99125.47;5055771;28;45482;-73
2022/10/23 10:27:55;;;;;;;;;4.60;4.00;;;;;17.83;75.00;99125.78;5054512;28;45543;-74
2022/10/23 10:30:28;;;;;;;;;5.20;5.20;;;;;17.96;74.94;99129.28;5040146;28;46047;-73
2022/10/23 10:33:08;;;;;;;;;5.60;5.60;;;;;18.12;74.36;99113.03;5055441;28;45558;-73
2022/10/23 10:35:48;;;;;;;;;5.40;5.00;;;;;18.27;74.15;99101.28;5054943;28;45469;-73
2022/10/23 10:38:16;;;;;;;;;3.00;3.00;;;;;18.43;73.40;99096.53;5053299;28;45415;-73
2022/10/23 10:40:50;;;;;;;;;5.40;4.00;;;;;18.59;72.96;99107.00;5052654;28;46510;-72
2022/10/23 10:43:56;;;;;;;;;4.40;4.20;;;;;18.72;72.67;99089.13;5053844;27;45495;-72
2022/10/23 10:46:24;;;;;;;;;5.40;4.00;;;;;18.83;71.11;99089.16;5052820;28;45427;-73
2022/10/23 10:49:09;;;;;;;;;3.60;3.00;;;;;18.95;71.12;99082.03;5044362;28;45365;-73
2022/10/23 10:51:48;;;;;;;;;7.60;5.80;;;;;19.08;71.05;99085.53;5055376;28;46384;-73
2022/10/23 10:54:25;;;;;;;;;4.80;4.00;;;;;19.26;70.94;99082.41;5054168;28;45423;-73
2022/10/23 10:56:51;;;;;;;;;7.00;4.80;;;;;19.40;69.41;99077.72;5049621;28;45484;-73
2022/10/23 10:59:41;;;;;;;;;6.75;6.00;;;;;19.59;69.11;99070.97;5054781;28;45427;-73
2022/10/23 11:02:18;;;;;;;;;7.60;6.60;;;;;19.77;67.39;99066.88;5054395;28;46654;-73
2022/10/23 11:04:55;;;;;;;;;20.20;16.80;;;;;19.97;67.03;99055.41;5055110;28;45474;-73
2022/10/23 11:07:32;;;;;;;;;18.40;15.40;;;;;20.16;65.92;99062.81;5055074;28;45548;-73
2022/10/23 11:10:02;;;;;;;;;12.40;10.20;;;;;20.39;65.10;99045.81;5051860;28;45452;-72
2022/10/23 11:12:28;;;;;;;;;6.00;5.00;;;;;20.61;63.27;99044.88;5053237;28;46980;-73
2022/10/23 11:14:54;;;;;;;;;9.50;8.00;;;;;20.87;61.85;99038.22;5055422;28;45285;-72
2022/10/23 11:17:36;;;;;;;;;8.80;7.00;;;;;21.22;60.34;99026.38;5055051;28;45483;-72
2022/10/23 11:20:24;;;;;;;;;6.00;4.00;;;;;21.57;59.12;99026.03;5042047;28;45844;-72
2022/10/23 11:23:31;;;;;;;;;7.60;4.80;;;;;22.01;57.34;99024.84;5048155;28;45621;-72
2022/10/23 11:26:12;;;;;;;;;11.40;6.00;;;;;22.34;55.12;99018.28;5046510;28;45412;-72
2022/10/23 11:29:03;;;;;;;;;5.60;5.00;;;;;22.64;54.48;99030.78;5043145;28;45424;-73
2022/10/23 11:31:40;;;;;;;;;9.00;5.40;;;;;22.94;53.31;99013.72;5054964;28;45416;-73
2022/10/23 11:34:33;;;;;;;;;8.00;5.80;;;;;23.23;52.52;99016.38;5054724;28;46279;-73
2022/10/23 11:37:02;;;;;;;;;8.00;5.20;;;;;23.42;51.13;98999.34;5049678;28;45413;-72
2022/10/23 11:39:31;;;;;;;;;11.20;4.00;;;;;23.61;50.66;99002.00;5054744;28;45450;-73
2022/10/23 11:42:05;;;;;;;;;8.00;5.40;;;;;23.84;51.87;99011.41;5052647;28;45519;-72
2022/10/23 11:44:33;;;;;;;;;8.60;5.40;;;;;24.02;50.45;98996.16;5052046;28;46699;-74
2022/10/23 11:47:02;;;;;;;;;9.60;6.00;;;;;24.18;49.14;98984.72;5053295;28;45336;-74
2022/10/23 11:49:27;;;;;;;;;7.00;5.00;;;;;24.37;48.40;98980.25;5054265;28;45435;-74